createdAt,value
2023-01-20T00:00:24.589Z,49.20
2023-01-20T00:03:13.396Z,48.00
2023-01-20T00:05:53.748Z,36.70
2023-01-20T00:09:07.627Z,40.20
2023-01-20T00:12:08.541Z,37.20
2023-01-20T00:14:38.852Z,35.40
2023-01-20T00:17:11.772Z,32.90
2023-01-20T00:19:41.733Z,36.70
2023-01-20T00:22:11.001Z,33.70
2023-01-20T00:24:39.886Z,33.60
2023-01-20T00:27:08.625Z,29.90
2023-01-20T00:29:37.810Z,30.60
2023-01-20T00:32:06.974Z,32.10
2023-01-20T00:34:35.834Z,34.50
2023-01-20T00:37:06.289Z,32.20
2023-01-20T00:39:34.976Z,31.10
2023-01-20T00:42:04.328Z,31.20
2023-01-20T00:45:32.716Z,32.10
2023-01-20T00:48:03.944Z,28.60
2023-01-20T00:50:33.184Z,29.70
2023-01-20T00:53:01.807Z,29.50
2023-01-20T00:55:52.564Z,28.80
2023-01-20T00:58:51.361Z,29.10
2023-01-20T01:01:19.994Z,33.20
2023-01-20T01:03:48.895Z,30.70
2023-01-20T01:09:22.310Z,29.10
2023-01-20T01:11:53.364Z,31.60
2023-01-20T01:14:22.171Z,41.10
2023-01-20T01:16:51.719Z,36.90
2023-01-20T01:19:20.586Z,35.40
2023-01-20T01:21:49.322Z,31.80
2023-01-20T01:24:18.590Z,32.40
2023-01-20T01:26:47.448Z,29.80
2023-01-20T01:29:16.182Z,29.10
2023-01-20T01:31:45.531Z,28.90
2023-01-20T01:34:15.771Z,28.70
2023-01-20T01:36:44.560Z,32.80
2023-01-20T01:39:13.435Z,31.80
2023-01-20T01:41:42.893Z,29.50
2023-01-20T01:44:13.614Z,31.00
2023-01-20T01:46:46.987Z,30.30
2023-01-20T01:52:43.083Z,29.30
2023-01-20T01:56:17.830Z,30.60
2023-01-20T01:59:24.972Z,30.30
2023-01-20T02:02:50.493Z,32.10
2023-01-20T02:06:20.318Z,28.40
2023-01-20T02:09:54.862Z,28.30
2023-01-20T02:16:17.268Z,32.20
2023-01-20T02:23:58.405Z,28.60
2023-01-20T02:27:06.463Z,27.40
2023-01-20T02:30:28.625Z,30.80
2023-01-20T02:37:52.040Z,32.10
2023-01-20T02:41:20.034Z,32.90
2023-01-20T02:44:36.273Z,34.90
2023-01-20T02:47:53.974Z,33.50
2023-01-20T02:55:16.094Z,31.40
2023-01-20T02:59:04.889Z,32.70
2023-01-20T03:02:23.447Z,31.00
2023-01-20T03:08:49.196Z,33.20
2023-01-20T03:12:56.783Z,29.90
2023-01-20T03:16:34.011Z,31.20
2023-01-20T03:19:43.016Z,32.20
2023-01-20T03:30:44.071Z,33.50
2023-01-20T03:37:31.574Z,34.10
2023-01-20T03:44:44.036Z,34.00
2023-01-20T03:48:35.021Z,36.90
2023-01-20T03:51:57.006Z,33.70
2023-01-20T03:59:23.965Z,31.30
2023-01-20T04:12:45.209Z,31.90
2023-01-20T04:19:05.181Z,30.30
2023-01-20T04:22:22.715Z,29.50
2023-01-20T04:26:10.950Z,29.00
2023-01-20T04:29:36.246Z,30.50
2023-01-20T04:33:10.642Z,30.40
2023-01-20T04:36:22.313Z,31.30
2023-01-20T04:39:41.676Z,31.50
2023-01-20T04:43:02.216Z,31.00
2023-01-20T04:46:53.354Z,30.70
2023-01-20T04:53:29.222Z,30.30
2023-01-20T04:56:56.828Z,30.50
2023-01-20T05:00:05.657Z,32.30
2023-01-20T05:03:06.454Z,33.10
2023-01-20T05:05:42.051Z,30.30
2023-01-20T05:08:19.433Z,30.30
2023-01-20T05:10:58.445Z,31.80
2023-01-20T05:13:35.972Z,29.90
2023-01-20T05:16:13.544Z,31.00
2023-01-20T05:18:52.252Z,30.90
2023-01-20T05:21:37.819Z,29.10
2023-01-20T05:24:16.363Z,32.00
2023-01-20T05:26:58.185Z,31.50
2023-01-20T05:29:38.426Z,30.60
2023-01-20T05:32:34.253Z,30.40
2023-01-20T05:35:31.947Z,28.20
2023-01-20T05:38:11.431Z,28.90
2023-01-20T05:41:03.116Z,29.40
2023-01-20T05:43:58.688Z,31.30
2023-01-20T05:46:53.329Z,26.80
2023-01-20T05:49:33.087Z,33.20
2023-01-20T05:52:11.908Z,30.70
2023-01-20T05:54:50.949Z,31.70
2023-01-20T05:57:39.249Z,27.80
2023-01-20T06:01:09.814Z,30.60
2023-01-20T06:04:28.016Z,29.90
2023-01-20T06:07:54.659Z,30.90
2023-01-20T06:11:36.282Z,29.80
2023-01-20T06:14:55.207Z,30.80
2023-01-20T06:18:07.683Z,31.90
2023-01-20T06:21:11.140Z,30.40
2023-01-20T06:24:01.806Z,30.00
2023-01-20T06:27:32.262Z,29.30
2023-01-20T06:30:33.667Z,31.20
2023-01-20T06:33:55.408Z,29.90
2023-01-20T06:37:08.574Z,30.10
2023-01-20T06:39:50.961Z,31.50
2023-01-20T06:42:39.094Z,31.80
2023-01-20T06:45:39.182Z,32.00
2023-01-20T06:48:52.114Z,29.40
2023-01-20T06:52:11.301Z,29.90
2023-01-20T06:55:27.106Z,28.20
2023-01-20T06:58:47.901Z,30.30
2023-01-20T07:02:09.223Z,28.40
2023-01-20T07:05:32.402Z,31.50
2023-01-20T07:08:33.257Z,29.00
2023-01-20T07:11:48.272Z,28.60
2023-01-20T07:14:58.973Z,57.60
2023-01-20T07:17:57.384Z,62.50
2023-01-20T07:21:00.774Z,51.20
2023-01-20T07:23:53.769Z,59.60
2023-01-20T07:27:06.091Z,68.70
2023-01-20T07:30:25.837Z,49.30
2023-01-20T07:33:48.126Z,47.50
2023-01-20T07:36:57.829Z,47.80
2023-01-20T07:40:27.220Z,48.10
2023-01-20T07:43:55.693Z,43.40
2023-01-20T07:47:19.034Z,43.00
2023-01-20T07:50:48.562Z,72.40
2023-01-20T07:54:24.282Z,44.80
2023-01-20T08:07:43.482Z,59.80
2023-01-20T08:11:03.615Z,50.60
2023-01-20T08:14:36.338Z,50.60
2023-01-20T09:15:04.833Z,29.50
2023-01-20T09:17:43.648Z,31.00
2023-01-20T09:20:34.807Z,30.90
2023-01-20T09:23:48.422Z,28.30
2023-01-20T09:26:34.356Z,28.90
2023-01-20T09:29:10.645Z,29.50
2023-01-20T09:31:44.811Z,27.70
2023-01-20T09:34:19.810Z,30.20
2023-01-20T09:37:22.741Z,33.50
2023-01-20T09:40:12.667Z,29.30
2023-01-20T09:43:20.663Z,26.50
2023-01-20T09:46:12.517Z,26.90
2023-01-20T09:49:36.195Z,26.60
2023-01-20T09:52:37.506Z,28.40
2023-01-20T09:55:16.451Z,30.30
2023-01-20T09:57:53.020Z,30.40
2023-01-20T10:00:52.541Z,29.30
2023-01-20T10:03:40.330Z,29.50
2023-01-20T10:06:27.122Z,30.00
2023-01-20T10:09:25.558Z,28.00
2023-01-20T10:12:08.382Z,31.50
2023-01-20T10:15:07.629Z,30.10
2023-01-20T10:18:08.461Z,29.90
2023-01-20T10:20:45.940Z,28.00
2023-01-20T10:23:36.251Z,26.90
2023-01-20T10:26:19.619Z,28.10
2023-01-20T10:29:01.195Z,28.20
2023-01-20T10:31:36.090Z,29.10
2023-01-20T10:34:18.501Z,28.50
2023-01-20T10:37:10.940Z,36.10
2023-01-20T10:40:10.627Z,35.00
2023-01-20T10:42:40.221Z,30.50
2023-01-20T10:45:28.980Z,28.30
2023-01-20T10:48:27.533Z,30.30
2023-01-20T10:51:15.327Z,26.70
2023-01-20T10:54:21.420Z,27.30
2023-01-20T10:56:59.744Z,27.20
2023-01-20T11:00:04.723Z,26.90
2023-01-20T11:05:31.080Z,26.00
2023-01-20T11:08:44.262Z,26.60
2023-01-20T11:11:25.941Z,26.00
2023-01-20T11:14:04.201Z,26.90
2023-01-20T11:16:42.433Z,25.10
2023-01-20T11:19:20.035Z,25.60
2023-01-20T11:21:57.593Z,25.20
2023-01-20T11:25:05.483Z,27.60
2023-01-20T11:27:49.289Z,27.50
2023-01-20T11:30:50.310Z,28.50
2023-01-20T11:34:09.038Z,27.60
2023-01-20T11:37:06.769Z,25.10
2023-01-20T11:40:37.246Z,26.00
2023-01-20T11:43:49.401Z,26.40
2023-01-20T11:47:18.000Z,23.70
2023-01-20T11:50:46.160Z,27.50
2023-01-20T11:53:32.080Z,27.60
2023-01-20T11:56:21.264Z,27.20
2023-01-20T11:59:15.675Z,28.10
2023-01-20T12:02:29.425Z,27.40
2023-01-20T12:06:14.057Z,30.40
2023-01-20T12:09:27.108Z,26.60
2023-01-20T12:12:54.348Z,32.20
2023-01-20T12:16:25.649Z,29.40
2023-01-20T12:19:55.387Z,32.00
2023-01-20T12:23:27.240Z,29.80
2023-01-20T12:26:57.107Z,31.00
2023-01-20T12:30:26.743Z,29.50
2023-01-20T12:33:57.129Z,31.10
2023-01-20T12:37:20.649Z,26.30
2023-01-20T12:41:16.431Z,30.30
2023-01-20T12:44:52.263Z,25.90
2023-01-20T12:48:28.324Z,29.20
2023-01-20T12:52:05.172Z,28.80
2023-01-20T12:59:53.240Z,28.20
2023-01-20T13:07:44.037Z,31.20
2023-01-20T13:10:57.643Z,29.60
2023-01-20T13:14:38.250Z,30.80
2023-01-20T13:18:09.333Z,30.80
2023-01-20T13:21:00.043Z,34.10
2023-01-20T13:23:43.133Z,39.10
2023-01-20T13:26:27.912Z,36.70
2023-01-20T13:29:32.343Z,38.20
2023-01-20T13:32:48.058Z,40.10
2023-01-20T13:36:04.583Z,42.50
2023-01-20T13:38:56.161Z,47.00
2023-01-20T13:42:27.053Z,43.40
2023-01-20T13:45:34.052Z,43.60
2023-01-20T13:48:56.541Z,46.30
2023-01-20T13:52:21.965Z,49.20
2023-01-20T13:55:02.003Z,50.50
2023-01-20T13:57:44.293Z,53.20
2023-01-20T14:00:40.411Z,55.20
2023-01-20T14:03:28.148Z,53.50
2023-01-20T14:06:05.761Z,52.60
2023-01-20T14:08:50.640Z,52.20
2023-01-20T14:11:26.966Z,54.40
2023-01-20T14:13:59.971Z,60.30
2023-01-20T14:16:38.712Z,51.70
2023-01-20T14:19:34.698Z,50.90
2023-01-20T14:22:17.666Z,53.60
2023-01-20T14:24:49.429Z,58.20
2023-01-20T14:27:30.055Z,50.70
2023-01-20T14:30:14.015Z,51.00
2023-01-20T14:32:43.285Z,55.70
2023-01-20T14:35:31.667Z,49.30
2023-01-20T14:38:01.651Z,47.30
2023-01-20T14:40:34.058Z,44.10
2023-01-20T14:43:15.988Z,43.30
2023-01-20T14:45:48.758Z,46.90
2023-01-20T14:48:32.948Z,50.50
2023-01-20T14:51:04.665Z,47.30
2023-01-20T14:53:34.131Z,43.00
2023-01-20T14:56:08.673Z,41.30
2023-01-20T14:59:40.034Z,43.50
2023-01-20T15:02:28.545Z,39.40
2023-01-20T15:04:57.891Z,40.90
2023-01-20T15:07:27.157Z,41.80
2023-01-20T15:10:03.487Z,38.90
2023-01-20T15:12:40.782Z,36.90
2023-01-20T15:15:16.200Z,34.00
2023-01-20T15:18:15.953Z,34.00
2023-01-20T15:20:50.627Z,32.10
2023-01-20T15:23:32.831Z,31.00
2023-01-20T15:26:30.736Z,32.80
2023-01-20T15:28:59.740Z,27.30
2023-01-20T15:31:28.839Z,33.60
2023-01-20T15:33:57.505Z,36.20
2023-01-20T15:36:33.555Z,33.60
2023-01-20T15:39:02.171Z,35.60
2023-01-20T15:41:30.805Z,35.60
2023-01-20T15:44:25.183Z,39.10
2023-01-20T15:49:26.619Z,30.20
2023-01-20T15:51:55.360Z,35.60
2023-01-20T15:54:24.870Z,33.30
2023-01-20T15:56:54.611Z,30.60
2023-01-20T15:59:26.370Z,32.00
2023-01-20T16:01:54.874Z,28.10
2023-01-20T16:04:24.224Z,29.50
2023-01-20T16:06:53.340Z,34.00
2023-01-20T16:09:26.617Z,32.50
2023-01-20T16:11:55.705Z,36.80
2023-01-20T16:14:24.762Z,35.10
2023-01-20T16:16:53.525Z,35.80
2023-01-20T16:19:22.223Z,32.70
2023-01-20T16:21:51.150Z,31.60
2023-01-20T16:24:19.669Z,35.80
2023-01-20T16:26:48.303Z,35.10
2023-01-20T16:29:17.777Z,31.80
2023-01-20T16:31:46.388Z,36.70
2023-01-20T16:34:15.392Z,30.90
2023-01-20T16:36:44.201Z,34.20
2023-01-20T16:39:13.123Z,41.60
2023-01-20T16:41:50.115Z,32.00
2023-01-20T16:44:19.459Z,43.20
2023-01-20T16:46:52.399Z,36.80
2023-01-20T16:49:22.730Z,37.20
2023-01-20T16:51:52.144Z,36.20
2023-01-20T16:54:21.706Z,33.30
2023-01-20T16:56:50.670Z,35.60
2023-01-20T16:59:30.149Z,34.80
2023-01-20T17:02:03.385Z,31.20
2023-01-20T17:04:32.370Z,30.90
2023-01-20T17:07:01.760Z,30.20
2023-01-20T17:09:30.871Z,26.90
2023-01-20T17:11:59.696Z,29.00
2023-01-20T17:14:32.349Z,25.80
2023-01-20T17:17:01.060Z,29.40
2023-01-20T17:19:31.349Z,28.80
2023-01-20T17:22:00.526Z,29.80
2023-01-20T17:24:30.161Z,28.20
2023-01-20T17:27:00.440Z,33.10
2023-01-20T17:29:29.908Z,33.20
2023-01-20T17:32:00.037Z,36.10
2023-01-20T17:34:30.152Z,33.60
2023-01-20T17:37:27.027Z,32.50
2023-01-20T17:40:42.481Z,26.80
2023-01-20T17:43:12.083Z,26.50
2023-01-20T17:45:42.985Z,26.20
2023-01-20T17:48:11.911Z,22.30
2023-01-20T17:50:41.713Z,26.90
2023-01-20T17:53:10.369Z,26.40
2023-01-20T17:55:39.665Z,28.70
2023-01-20T17:58:11.460Z,26.80
2023-01-20T18:00:40.976Z,29.70
2023-01-20T18:03:11.742Z,30.30
2023-01-20T18:05:41.381Z,29.60
2023-01-20T18:08:11.078Z,27.30
2023-01-20T18:10:40.143Z,29.60
2023-01-20T18:13:11.389Z,29.10
2023-01-20T18:15:42.684Z,27.40
2023-01-20T18:18:13.960Z,27.30
2023-01-20T18:20:45.657Z,26.20
2023-01-20T18:23:15.750Z,29.50
2023-01-20T18:25:45.471Z,27.60
2023-01-20T18:28:14.620Z,26.10
2023-01-20T18:30:45.183Z,26.10
2023-01-20T18:33:13.988Z,25.40
2023-01-20T18:35:43.164Z,26.10
2023-01-20T18:38:12.826Z,23.50
2023-01-20T18:40:42.016Z,24.80
2023-01-20T18:43:11.352Z,26.30
2023-01-20T18:45:40.852Z,26.70
2023-01-20T18:48:23.449Z,29.00
2023-01-20T18:50:58.596Z,26.80
2023-01-20T18:53:30.893Z,26.40
2023-01-20T18:56:02.532Z,28.60
2023-01-20T18:58:36.266Z,26.10
2023-01-20T19:01:13.242Z,28.70
2023-01-20T19:03:44.025Z,26.90
2023-01-20T19:06:21.666Z,32.10
2023-01-20T19:08:53.054Z,26.70
2023-01-20T19:11:26.115Z,25.40
2023-01-20T19:14:00.024Z,26.80
2023-01-20T19:16:42.625Z,23.20
2023-01-20T19:19:12.680Z,24.30
2023-01-20T19:21:46.911Z,24.80
2023-01-20T19:24:20.787Z,23.60
2023-01-20T19:26:50.717Z,26.40
2023-01-20T19:29:20.479Z,22.70
2023-01-20T19:31:53.478Z,24.50
2023-01-20T19:34:23.623Z,25.70
2023-01-20T19:36:53.628Z,20.10
2023-01-20T19:39:23.831Z,26.20
2023-01-20T19:41:54.348Z,24.20
2023-01-20T19:44:25.398Z,29.40
2023-01-20T19:46:59.719Z,30.50
2023-01-20T19:49:35.293Z,25.00
2023-01-20T19:52:07.073Z,23.80
2023-01-20T19:54:38.871Z,24.30
2023-01-20T19:57:09.080Z,28.30
2023-01-20T19:59:41.959Z,25.90
2023-01-20T20:02:13.499Z,26.90
2023-01-20T20:04:46.736Z,29.90
2023-01-20T20:07:17.493Z,26.90
2023-01-20T20:09:48.693Z,27.60
2023-01-20T20:12:20.692Z,31.30
2023-01-20T20:14:52.413Z,24.80
2023-01-20T20:17:23.873Z,24.30
2023-01-20T20:19:54.854Z,23.70
2023-01-20T20:22:25.977Z,26.90
2023-01-20T20:24:59.336Z,22.60
2023-01-20T20:27:29.534Z,25.90
2023-01-20T20:30:05.945Z,25.50
2023-01-20T20:32:36.143Z,25.20
2023-01-20T20:35:08.290Z,24.00
2023-01-20T20:37:39.300Z,24.70
2023-01-20T20:40:13.681Z,25.80
2023-01-20T20:42:44.474Z,24.30
2023-01-20T20:45:13.874Z,28.50
2023-01-20T20:47:43.305Z,26.10
2023-01-20T20:50:14.256Z,30.90
2023-01-20T20:52:51.516Z,27.50
2023-01-20T20:55:24.293Z,24.20
2023-01-20T20:57:53.605Z,25.90
2023-01-20T21:01:21.198Z,24.60
2023-01-20T21:03:51.396Z,27.60
2023-01-20T21:06:23.248Z,32.90
2023-01-20T21:08:53.891Z,34.10
2023-01-20T21:11:25.824Z,32.90
2023-01-20T21:13:55.605Z,23.70
2023-01-20T21:16:27.068Z,32.80
2023-01-20T21:18:59.377Z,36.00
2023-01-20T21:21:29.995Z,29.00
2023-01-20T21:24:00.018Z,33.10
2023-01-20T21:26:30.962Z,29.80
2023-01-20T21:29:02.525Z,27.90
2023-01-20T21:31:35.468Z,26.70
2023-01-20T21:34:05.154Z,31.40
2023-01-20T21:36:41.751Z,29.80
2023-01-20T21:39:17.156Z,29.80
2023-01-20T21:41:49.522Z,27.60
2023-01-20T21:44:32.973Z,31.10
2023-01-20T21:47:11.798Z,29.30
2023-01-20T21:49:59.755Z,27.80
2023-01-20T21:52:43.223Z,27.30
2023-01-20T21:55:19.564Z,27.70
2023-01-20T21:57:51.358Z,29.50
2023-01-20T22:00:22.486Z,29.10
2023-01-20T22:02:51.349Z,29.70
2023-01-20T22:05:21.266Z,28.70
2023-01-20T22:07:50.490Z,29.90
2023-01-20T22:10:19.524Z,28.10
2023-01-20T22:12:48.130Z,30.50
2023-01-20T22:15:16.920Z,29.50
2023-01-20T22:17:45.700Z,30.90
2023-01-20T22:20:15.243Z,28.80
2023-01-20T22:22:44.696Z,27.90
2023-01-20T22:25:13.959Z,27.70
2023-01-20T22:27:42.496Z,26.80
2023-01-20T22:30:11.810Z,25.50
2023-01-20T22:32:40.805Z,27.10
2023-01-20T22:35:09.733Z,26.80
2023-01-20T22:37:39.087Z,26.70
2023-01-20T22:40:08.000Z,29.20
2023-01-20T22:42:36.329Z,25.00
2023-01-20T22:45:05.008Z,27.60
2023-01-20T22:47:33.471Z,21.90
2023-01-20T22:50:02.154Z,24.00
2023-01-20T22:52:31.131Z,24.30
2023-01-20T22:54:59.654Z,24.20
2023-01-20T22:57:31.029Z,22.80
2023-01-20T23:01:03.442Z,22.50
2023-01-20T23:03:33.143Z,21.90
2023-01-20T23:06:01.818Z,22.20
2023-01-20T23:08:32.345Z,23.30
2023-01-20T23:11:04.720Z,21.50
2023-01-20T23:13:35.616Z,21.10
2023-01-20T23:16:08.347Z,19.70
2023-01-20T23:21:07.359Z,18.80
2023-01-20T23:23:37.126Z,21.30
2023-01-20T23:26:17.558Z,20.90
2023-01-20T23:28:47.702Z,20.40
2023-01-20T23:31:17.961Z,20.30
2023-01-20T23:33:47.390Z,19.40
2023-01-20T23:36:24.864Z,19.10
2023-01-20T23:38:57.213Z,20.20
2023-01-20T23:41:25.870Z,17.60
2023-01-20T23:43:54.602Z,18.80
2023-01-20T23:46:23.418Z,17.70
2023-01-20T23:48:52.021Z,17.50
2023-01-20T23:51:21.354Z,19.90
2023-01-20T23:53:50.650Z,20.10
2023-01-20T23:56:23.832Z,16.80
2023-01-20T23:59:18.469Z,18.40
